Time;durP1;ratioP1;P1;durP2;ratioP2;P2;SDS_P1;SDS_P2;PMS_P1;PMS_P2;Temp;Humidity;BMP_temperature;BMP_pressure;BME280_temperature;BME280_humidity;BME280_pressure;Samples;Min_cycle;Max_cycle;Signal;HPM_P1;HPM_P2
2023/04/02 00:00:36;;;;;;;3.93;2.37;;;10.70;99.90;;;;;;10528120;28;20020;-63
2023/04/02 00:05:48;;;;;;;4.05;2.88;;;10.70;99.90;;;;;;10519645;28;20277;-63
2023/04/02 00:10:55;;;;;;;4.20;2.65;;;10.60;99.90;;;;;;10523461;28;20027;-62
2023/04/02 00:15:57;;;;;;;4.85;2.30;;;10.60;99.90;;;;;;10524887;28;20024;-63
2023/04/02 00:21:04;;;;;;;3.90;2.30;;;10.60;99.90;;;;;;10520019;28;20077;-63
2023/04/02 00:26:41;;;;;;;4.28;2.75;;;10.60;99.90;;;;;;10521261;28;20043;-63
2023/04/02 00:31:45;;;;;;;4.68;2.53;;;10.60;99.90;;;;;;10515485;28;20032;-63
2023/04/02 00:36:47;;;;;;;5.50;2.58;;;10.60;99.90;;;;;;10516245;28;20288;-63
2023/04/02 00:41:53;;;;;;;4.13;2.25;;;10.50;99.90;;;;;;10513967;28;20031;-63
2023/04/02 00:46:56;;;;;;;4.03;2.47;;;10.50;99.90;;;;;;10523368;28;20031;-63
2023/04/02 00:52:01;;;;;;;4.50;2.42;;;10.50;99.90;;;;;;10522549;28;20051;-63
2023/04/02 00:57:02;;;;;;;4.90;2.50;;;10.50;99.90;;;;;;10523009;28;20032;-63
2023/04/02 01:02:16;;;;;;;3.92;2.63;;;10.50;99.90;;;;;;10519245;28;20487;-62
2023/04/02 01:07:17;;;;;;;3.92;2.28;;;10.50;99.90;;;;;;10521625;28;20024;-64
2023/04/02 01:12:45;;;;;;;3.70;2.40;;;10.50;99.90;;;;;;10521628;28;20020;-63
2023/04/02 01:18:03;;;;;;;7.18;2.72;;;10.40;99.90;;;;;;10514953;28;20512;-63
2023/04/02 01:23:10;;;;;;;2.77;2.00;;;10.40;99.90;;;;;;10521412;28;20024;-63
2023/04/02 01:28:28;;;;;;;4.00;2.35;;;10.40;99.90;;;;;;10523469;28;20008;-63
2023/04/02 01:33:33;;;;;;;5.43;2.80;;;10.40;99.90;;;;;;10519593;28;20439;-63
2023/04/02 01:38:42;;;;;;;4.03;2.22;;;10.40;99.90;;;;;;10515684;28;20062;-63
2023/04/02 01:43:46;;;;;;;;;;;10.40;99.90;;;;;;10518736;28;20534;-62
2023/04/02 01:48:47;;;;;;;3.60;2.30;;;10.30;99.90;;;;;;10522913;28;20042;-62
2023/04/02 01:53:48;;;;;;;4.70;2.40;;;10.30;99.90;;;;;;10522056;28;20322;-62
2023/04/02 01:58:48;;;;;;;4.57;2.25;;;10.30;99.90;;;;;;10516523;28;20028;-63
2023/04/02 02:03:50;;;;;;;2.70;2.00;;;10.30;99.90;;;;;;10521417;28;20111;-62
2023/04/02 02:09:03;;;;;;;2.88;2.00;;;10.20;99.90;;;;;;10518431;28;20036;-62
2023/04/02 02:14:25;;;;;;;4.28;2.50;;;10.20;99.90;;;;;;10523047;28;20119;-63
2023/04/02 02:19:33;;;;;;;4.60;2.05;;;10.20;99.90;;;;;;10522977;28;20026;-63
2023/04/02 02:24:35;;;;;;;3.73;2.33;;;10.20;99.90;;;;;;10520618;28;20016;-63
2023/04/02 02:29:39;;;;;;;4.30;2.60;;;10.20;99.90;;;;;;10518263;28;20047;-63
2023/04/02 02:34:48;;;;;;;4.85;2.33;;;10.10;99.90;;;;;;10515070;28;20393;-63
2023/04/02 02:39:53;;;;;;;3.50;2.10;;;10.10;99.90;;;;;;10520695;28;20020;-63
2023/04/02 02:44:56;;;;;;;3.10;2.20;;;10.10;99.90;;;;;;10514579;28;20285;-63
2023/04/02 02:50:00;;;;;;;2.65;1.92;;;10.00;99.90;;;;;;10518161;28;20027;-63
2023/04/02 02:55:18;;;;;;;3.15;1.98;;;10.10;99.90;;;;;;10519581;28;20107;-63
2023/04/02 03:00:19;;;;;;;4.43;2.25;;;10.00;99.90;;;;;;10511602;28;20028;-64
2023/04/02 03:05:22;;;;;;;2.47;1.67;;;10.00;99.90;;;;;;10516549;28;20459;-62
2023/04/02 03:10:45;;;;;;;4.22;2.08;;;9.90;99.90;;;;;;10522641;28;20511;-64
2023/04/02 03:16:06;;;;;;;3.25;1.70;;;9.90;99.90;;;;;;10520680;28;20028;-63
2023/04/02 03:21:34;;;;;;;2.67;1.88;;;9.90;99.90;;;;;;10524722;28;20020;-63
2023/04/02 03:26:44;;;;;;;;;;;9.80;99.90;;;;;;10528121;28;20020;-63
2023/04/02 03:32:13;;;;;;;3.80;2.25;;;9.80;99.90;;;;;;10516455;28;19908;-64
2023/04/02 03:37:30;;;;;;;3.10;1.65;;;9.80;99.90;;;;;;10526915;28;20051;-64
2023/04/02 03:42:52;;;;;;;3.90;1.58;;;9.70;99.90;;;;;;10524252;28;20020;-63
2023/04/02 03:48:39;;;;;;;3.78;1.67;;;9.70;99.90;;;;;;10524443;28;20487;-64
2023/04/02 03:53:42;;;;;;;2.92;1.45;;;9.70;99.90;;;;;;10495965;28;20039;-63
2023/04/02 03:58:48;;;;;;;3.15;1.75;;;9.60;99.90;;;;;;10523859;28;20479;-63
2023/04/02 04:04:12;;;;;;;2.75;1.55;;;9.60;99.90;;;;;;10526493;28;20555;-64
2023/04/02 04:09:35;;;;;;;2.95;1.80;;;9.60;99.90;;;;;;10522621;28;20031;-63
2023/04/02 04:14:39;;;;;;;4.30;1.90;;;9.50;99.90;;;;;;10525203;28;20027;-63
2023/04/02 04:19:58;;;;;;;4.22;1.77;;;9.50;99.90;;;;;;10526782;28;20120;-62
2023/04/02 04:25:02;;;;;;;5.13;1.90;;;9.50;99.90;;;;;;10530056;28;20101;-62
2023/04/02 04:30:17;;;;;;;3.72;1.60;;;9.40;99.90;;;;;;10522652;28;20032;-61
2023/04/02 04:35:28;;;;;;;2.95;1.80;;;9.40;99.90;;;;;;10525059;28;20024;-63
2023/04/02 04:40:33;;;;;;;3.30;1.50;;;9.30;99.90;;;;;;10524539;28;20028;-62
2023/04/02 04:45:39;;;;;;;3.85;1.85;;;9.40;99.90;;;;;;10519820;28;20102;-64
2023/04/02 04:50:46;;;;;;;2.35;1.80;;;9.30;99.90;;;;;;10526289;28;20023;-62
2023/04/02 04:55:50;;;;;;;1.92;1.65;;;9.30;99.90;;;;;;10520447;28;20109;-63
2023/04/02 05:01:15;;;;;;;3.30;1.38;;;9.30;99.90;;;;;;10520085;28;20035;-63
2023/04/02 05:06:33;;;;;;;2.05;1.60;;;9.20;99.90;;;;;;10521522;28;20111;-62
2023/04/02 05:12:15;;;;;;;2.33;1.53;;;9.20;99.90;;;;;;10520435;28;20073;-63
2023/04/02 05:17:27;;;;;;;2.88;1.55;;;9.20;99.90;;;;;;10523069;28;20361;-64
2023/04/02 05:22:52;;;;;;;3.28;1.55;;;9.20;99.90;;;;;;10522752;28;20107;-63
2023/04/02 05:28:14;;;;;;;3.58;1.75;;;9.10;99.90;;;;;;10523995;28;20503;-64
2023/04/02 05:33:27;;;;;;;3.47;1.35;;;9.10;99.90;;;;;;10522745;28;20035;-63
2023/04/02 05:38:32;;;;;;;2.97;1.40;;;9.10;99.90;;;;;;10523232;28;20020;-63
2023/04/02 05:43:37;;;;;;;2.17;1.40;;;9.10;99.90;;;;;;10522091;28;20058;-64
2023/04/02 05:48:42;;;;;;;2.45;1.60;;;9.00;99.90;;;;;;10523029;28;20248;-63
2023/04/02 05:53:49;;;;;;;2.13;1.83;;;9.00;99.90;;;;;;10521128;28;20052;-64
2023/04/02 05:58:56;;;;;;;2.72;1.58;;;9.00;99.90;;;;;;10522015;28;20507;-62
2023/04/02 06:04:15;;;;;;;3.38;1.35;;;9.00;99.90;;;;;;10512584;28;20016;-63
2023/04/02 06:09:20;;;;;;;2.78;1.10;;;9.00;99.90;;;;;;10520120;28;20116;-64
2023/04/02 06:14:21;;;;;;;1.88;1.20;;;9.00;99.90;;;;;;10522773;28;20046;-63
2023/04/02 06:19:27;;;;;;;2.22;1.45;;;9.00;99.90;;;;;;10517539;28;20028;-63
2023/04/02 06:24:29;;;;;;;2.47;1.27;;;9.00;99.90;;;;;;10523553;28;20054;-63
2023/04/02 06:29:38;;;;;;;3.08;1.27;;;8.90;99.90;;;;;;10523248;28;20024;-64
2023/04/02 06:34:40;;;;;;;2.78;1.13;;;8.90;99.90;;;;;;10525877;28;20038;-63
2023/04/02 06:39:41;;;;;;;2.13;1.17;;;8.90;99.90;;;;;;10520244;28;20016;-62
2023/04/02 06:44:42;;;;;;;3.78;1.23;;;8.90;99.90;;;;;;10524415;28;20400;-64
2023/04/02 06:50:02;;;;;;;2.67;1.40;;;8.90;99.90;;;;;;10524123;28;20443;-64
2023/04/02 06:55:30;;;;;;;2.05;1.13;;;8.90;99.70;;;;;;10530312;28;20476;-63
2023/04/02 07:00:40;;;;;;;2.55;1.42;;;8.90;99.70;;;;;;10528255;28;20021;-63
2023/04/02 07:05:41;;;;;;;1.25;0.93;;;8.90;99.70;;;;;;10526434;28;20039;-64
2023/04/02 07:10:41;;;;;;;2.03;1.25;;;8.90;99.70;;;;;;10530389;28;20024;-64
2023/04/02 07:15:47;;;;;;;3.15;1.10;;;8.90;99.70;;;;;;10527439;28;20515;-64
2023/04/02 07:20:47;;;;;;;1.88;1.08;;;8.90;99.60;;;;;;10521360;28;20020;-63
2023/04/02 07:25:50;;;;;;;1.55;1.05;;;8.90;99.60;;;;;;10525979;28;20017;-63
2023/04/02 07:30:52;;;;;;;1.45;1.00;;;8.90;99.60;;;;;;10529679;28;20056;-62
2023/04/02 07:35:56;;;;;;;1.67;0.90;;;9.00;99.50;;;;;;10527993;28;20032;-63
2023/04/02 07:40:56;;;;;;;2.25;1.30;;;9.00;99.50;;;;;;10528811;28;20228;-63
2023/04/02 07:45:58;;;;;;;5.88;1.10;;;9.00;99.50;;;;;;10528229;28;20012;-62
2023/04/02 07:51:02;;;;;;;3.53;1.20;;;9.00;99.50;;;;;;10519764;28;20027;-63
2023/04/02 07:56:04;;;;;;;1.15;0.93;;;9.00;99.40;;;;;;10528776;28;20111;-63
2023/04/02 08:01:15;;;;;;;4.90;1.00;;;9.00;99.50;;;;;;10522581;28;20028;-65
2023/04/02 08:06:16;;;;;;;2.28;1.15;;;9.00;99.40;;;;;;10527225;28;20020;-63
2023/04/02 08:11:17;;;;;;;2.65;1.00;;;9.00;99.40;;;;;;10526691;28;20024;-63
2023/04/02 08:16:17;;;;;;;3.45;1.20;;;9.00;99.40;;;;;;10526538;28;20443;-63
2023/04/02 08:21:18;;;;;;;3.10;1.02;;;9.00;99.40;;;;;;10521243;28;20151;-63
2023/04/02 08:26:19;;;;;;;3.40;0.95;;;9.00;99.40;;;;;;10522690;28;20502;-64
2023/04/02 08:31:19;;;;;;;1.52;0.90;;;9.00;99.40;;;;;;10525243;28;20239;-63
2023/04/02 08:36:27;;;;;;;4.30;1.48;;;9.00;99.30;;;;;;10524081;28;20032;-63
2023/04/02 08:41:36;;;;;;;2.10;1.20;;;9.00;99.30;;;;;;10525296;28;20107;-63
2023/04/02 08:46:43;;;;;;;5.32;1.17;;;9.00;99.30;;;;;;10521823;28;20024;-63
2023/04/02 08:51:44;;;;;;;1.30;0.90;;;9.00;99.30;;;;;;10513661;28;20028;-64
2023/04/02 08:56:57;;;;;;;4.20;1.10;;;9.00;99.30;;;;;;10524967;28;20484;-63
2023/04/02 09:02:26;;;;;;;2.30;1.00;;;9.10;99.30;;;;;;10522520;28;20028;-64
2023/04/02 09:07:27;;;;;;;2.25;0.93;;;9.10;99.20;;;;;;10518706;28;20054;-64
2023/04/02 09:12:30;;;;;;;4.50;1.25;;;9.10;99.30;;;;;;10525264;28;20020;-62
2023/04/02 09:17:31;;;;;;;1.70;0.70;;;9.10;99.30;;;;;;10517229;28;20300;-63
2023/04/02 09:22:33;;;;;;;2.42;0.80;;;9.20;99.30;;;;;;10525341;28;20408;-63
2023/04/02 09:27:50;;;;;;;2.50;0.90;;;9.20;99.30;;;;;;10522218;28;20034;-64
2023/04/02 09:33:00;;;;;;;2.42;1.10;;;9.20;99.30;;;;;;10519417;28;20364;-63
2023/04/02 09:38:27;;;;;;;4.45;1.20;;;9.20;99.30;;;;;;10446897;28;20408;-63
2023/04/02 09:43:34;;;;;;;2.33;0.98;;;9.30;99.40;;;;;;10454633;28;20157;-63
2023/04/02 09:49:00;;;;;;;2.88;1.15;;;9.30;99.40;;;;;;10446190;28;20017;-64
2023/04/02 09:54:03;;;;;;;5.28;1.17;;;9.30;99.40;;;;;;10429589;28;20031;-64
2023/04/02 09:59:11;;;;;;;5.20;0.98;;;9.40;99.60;;;;;;10441282;28;20024;-63
2023/04/02 10:04:33;;;;;;;5.35;1.25;;;9.40;99.40;;;;;;10443499;28;20020;-65
2023/04/02 10:09:37;;;;;;;5.68;1.20;;;9.10;97.50;;;;;;10442902;28;20500;-64
2023/04/02 10:14:44;;;;;;;3.78;1.00;;;7.90;97.30;;;;;;10443413;28;20292;-66
2023/04/02 10:19:49;;;;;;;5.05;1.23;;;7.20;97.40;;;;;;10436102;28;20567;-66
2023/04/02 10:24:50;;;;;;;2.15;1.10;;;7.00;97.10;;;;;;10443922;28;20029;-64
2023/04/02 10:30:01;;;;;;;2.22;0.90;;;6.90;97.50;;;;;;10435975;28;20099;-63
2023/04/02 10:35:11;;;;;;;4.78;1.05;;;7.30;97.80;;;;;;10448165;28;20128;-64
2023/04/02 10:40:25;;;;;;;1.65;0.80;;;7.80;97.60;;;;;;10438444;28;20026;-63
2023/04/02 10:45:40;;;;;;;4.15;0.80;;;8.20;97.50;;;;;;10442839;28;20032;-63
2023/04/02 10:50:50;;;;;;;3.13;1.00;;;8.50;97.50;;;;;;10412259;28;20235;-63
2023/04/02 10:55:56;;;;;;;2.80;0.90;;;8.80;97.80;;;;;;10416653;28;20057;-63
2023/04/02 11:01:16;;;;;;;5.72;1.10;;;9.00;97.50;;;;;;10418858;28;20025;-63
2023/04/02 11:06:24;;;;;;;2.42;1.08;;;9.20;97.90;;;;;;10414686;28;20025;-63
2023/04/02 11:11:43;;;;;;;2.15;0.77;;;9.40;97.60;;;;;;10417930;28;20436;-63
2023/04/02 11:16:44;;;;;;;3.17;1.23;;;9.50;97.80;;;;;;10397130;28;20560;-63
2023/04/02 11:21:51;;;;;;;4.80;1.02;;;9.60;97.70;;;;;;10406380;28;20036;-64
2023/04/02 11:26:53;;;;;;;3.55;1.05;;;9.80;97.70;;;;;;10416633;28;20025;-64
2023/04/02 11:32:14;;;;;;;2.92;0.90;;;9.90;97.70;;;;;;10412789;28;20048;-64
2023/04/02 11:37:36;;;;;;;3.78;1.08;;;9.90;97.80;;;;;;10412163;28;20520;-64
2023/04/02 11:42:41;;;;;;;2.38;1.02;;;10.00;97.80;;;;;;10402968;28;20021;-64
2023/04/02 11:48:07;;;;;;;2.90;0.85;;;10.00;97.80;;;;;;10403086;28;20026;-64
2023/04/02 11:53:10;;;;;;;3.97;0.90;;;10.10;97.80;;;;;;10408762;28;20047;-65
2023/04/02 11:58:36;;;;;;;2.15;0.95;;;10.20;97.80;;;;;;10410310;28;20083;-65
2023/04/02 12:03:49;;;;;;;4.40;1.10;;;10.20;97.80;;;;;;10408004;28;20084;-65
2023/04/02 12:09:21;;;;;;;2.03;0.80;;;10.30;97.80;;;;;;10413833;28;20061;-64
2023/04/02 12:14:37;;;;;;;1.42;0.68;;;10.30;97.80;;;;;;10412486;28;20088;-65
2023/04/02 12:19:38;;;;;;;2.65;0.85;;;10.40;97.80;;;;;;10416376;28;20443;-64
2023/04/02 12:24:39;;;;;;;3.55;1.17;;;10.50;97.90;;;;;;10418603;28;20401;-64
2023/04/02 12:29:40;;;;;;;2.03;0.70;;;10.50;97.90;;;;;;10409697;28;20079;-63
2023/04/02 12:34:44;;;;;;;2.10;0.70;;;10.60;97.90;;;;;;10402370;28;20102;-64
2023/04/02 12:39:52;;;;;;;2.03;0.93;;;10.60;97.90;;;;;;10413085;28;20464;-63
2023/04/02 12:44:53;;;;;;;3.20;1.48;;;10.70;97.80;;;;;;10405324;28;20017;-63
2023/04/02 12:49:55;;;;;;;1.38;0.73;;;10.80;97.90;;;;;;10401247;28;20102;-63
2023/04/02 12:54:59;;;;;;;2.60;0.77;;;10.80;98.00;;;;;;10406178;28;20029;-63
2023/04/02 13:00:05;;;;;;;1.23;0.50;;;10.90;98.00;;;;;;10412988;28;20014;-64
2023/04/02 13:05:07;;;;;;;2.55;0.60;;;10.90;98.00;;;;;;10403778;28;20536;-63
2023/04/02 13:10:26;;;;;;;2.67;0.50;;;11.00;98.00;;;;;;10400650;28;20469;-63
2023/04/02 13:15:28;;;;;;;2.15;0.60;;;11.00;98.10;;;;;;10394815;28;20018;-63
2023/04/02 13:20:33;;;;;;;3.33;0.73;;;11.10;98.10;;;;;;10403048;28;20111;-64
2023/04/02 13:25:35;;;;;;;1.40;0.70;;;11.10;98.10;;;;;;10408669;28;20033;-63
2023/04/02 13:30:36;;;;;;;6.53;1.33;;;11.20;98.00;;;;;;10414331;28;20036;-64
2023/04/02 13:35:36;;;;;;;4.63;0.80;;;11.30;97.80;;;;;;10413187;28;20299;-64
2023/04/02 13:40:37;;;;;;;3.22;0.70;;;11.40;97.80;;;;;;10406407;28;20494;-63
2023/04/02 13:45:40;;;;;;;2.50;0.80;;;11.50;97.80;;;;;;10412054;28;20129;-62
2023/04/02 13:50:41;;;;;;;3.05;0.82;;;11.60;97.90;;;;;;10409876;28;20045;-64
2023/04/02 13:55:42;;;;;;;2.90;0.80;;;11.70;97.90;;;;;;10405383;28;20108;-64
2023/04/02 14:00:42;;;;;;;1.58;0.80;;;11.80;97.90;;;;;;10415902;28;20014;-64
2023/04/02 14:06:17;;;;;;;1.27;0.70;;;11.90;98.00;;;;;;10401243;28;20021;-64
2023/04/02 14:11:23;;;;;;;1.88;0.70;;;12.00;98.00;;;;;;10410753;28;20041;-64
2023/04/02 14:16:41;;;;;;;1.30;0.65;;;12.10;97.90;;;;;;10407922;28;20029;-64
2023/04/02 14:22:05;;;;;;;2.75;0.63;;;12.20;97.90;;;;;;10411534;28;20026;-63
2023/04/02 14:27:22;;;;;;;1.30;0.70;;;12.30;98.10;;;;;;10414301;28;20108;-63
2023/04/02 14:32:35;;;;;;;2.25;0.68;;;12.40;97.80;;;;;;10415330;28;20029;-64
2023/04/02 14:37:50;;;;;;;2.03;0.60;;;12.50;97.70;;;;;;10418376;28;20064;-65
2023/04/02 14:43:05;;;;;;;2.03;0.68;;;12.60;97.70;;;;;;10413941;28;20021;-64
2023/04/02 14:48:18;;;;;;;1.20;0.57;;;12.80;97.50;;;;;;10420847;28;20491;-64
2023/04/02 14:53:51;;;;;;;1.20;0.60;;;12.90;97.40;;;;;;10420056;28;20318;-65
2023/04/02 14:59:13;;;;;;;1.02;0.60;;;13.00;97.10;;;;;;10415190;28;20057;-64
2023/04/02 15:04:23;;;;;;;2.13;0.70;;;13.10;97.20;;;;;;10411420;28;20072;-64
2023/04/02 15:09:32;;;;;;;2.03;0.50;;;13.30;97.00;;;;;;10419954;28;20025;-64
2023/04/02 15:14:46;;;;;;;2.67;0.52;;;13.40;96.90;;;;;;10402057;28;20025;-65
2023/04/02 15:19:48;;;;;;;1.05;0.63;;;13.50;96.90;;;;;;10404566;28;20025;-64
2023/04/02 15:25:09;;;;;;;1.77;0.68;;;13.40;96.60;;;;;;10401301;28;20050;-63
2023/04/02 15:30:15;;;;;;;2.60;0.70;;;13.40;96.70;;;;;;10408221;28;20038;-64
2023/04/02 15:35:31;;;;;;;3.05;0.70;;;13.30;96.80;;;;;;10392657;28;20128;-63
2023/04/02 15:40:53;;;;;;;5.57;0.93;;;13.50;96.60;;;;;;10401601;28;20104;-67
2023/04/02 15:46:09;;;;;;;1.40;0.80;;;13.30;95.00;;;;;;10403584;28;20144;-67
2023/04/02 15:51:47;;;;;;;3.55;0.80;;;12.40;93.20;;;;;;10405791;28;20026;-67
2023/04/02 15:56:48;;;;;;;2.20;0.70;;;11.90;92.40;;;;;;10397814;28;20401;-65
2023/04/02 16:02:10;;;;;;;2.22;0.70;;;11.30;93.30;;;;;;10397402;28;20041;-63
2023/04/02 16:07:29;;;;;;;7.78;0.80;;;11.40;92.70;;;;;;10396134;28;20030;-63
2023/04/02 16:12:32;;;;;;;2.10;0.60;;;11.70;93.00;;;;;;10402812;28;20136;-63
2023/04/02 16:17:44;;;;;;;1.98;0.82;;;12.00;93.90;;;;;;10407043;28;20044;-64
2023/04/02 16:22:51;;;;;;;2.63;0.68;;;12.20;93.60;;;;;;10398687;28;20036;-63
2023/04/02 16:27:58;;;;;;;2.95;0.68;;;12.40;93.90;;;;;;10399643;28;20053;-63
2023/04/02 16:33:17;;;;;;;0.90;0.50;;;12.50;93.90;;;;;;10410384;28;20025;-63
2023/04/02 16:38:32;;;;;;;0.63;0.40;;;12.60;94.20;;;;;;10407802;28;20508;-63
2023/04/02 16:43:42;;;;;;;1.83;0.40;;;12.70;94.00;;;;;;10398606;28;20489;-65
2023/04/02 16:49:00;;;;;;;3.35;0.57;;;12.80;94.20;;;;;;10398587;28;20030;-64
2023/04/02 16:54:12;;;;;;;1.80;0.47;;;12.80;94.10;;;;;;10402916;28;20112;-63
2023/04/02 16:59:32;;;;;;;0.40;0.38;;;12.80;94.30;;;;;;10404546;28;20089;-63
2023/04/02 17:04:44;;;;;;;1.65;0.35;;;12.80;94.70;;;;;;10398543;28;20033;-62
2023/04/02 17:09:51;;;;;;;2.17;0.50;;;12.80;94.80;;;;;;10406178;28;20033;-63
2023/04/02 17:14:59;;;;;;;1.55;0.63;;;12.70;95.00;;;;;;10399400;28;20029;-63
2023/04/02 17:20:00;;;;;;;0.63;0.40;;;12.70;95.10;;;;;;10407253;28;20095;-63
2023/04/02 17:25:04;;;;;;;0.60;0.30;;;12.80;95.30;;;;;;10405420;28;20029;-64
2023/04/02 17:30:22;;;;;;;3.53;0.45;;;12.60;95.40;;;;;;10399799;28;20021;-63
2023/04/02 17:35:40;;;;;;;1.15;0.40;;;12.60;95.20;;;;;;10403266;28;20528;-64
2023/04/02 17:41:12;;;;;;;1.70;0.50;;;12.50;94.50;;;;;;10409335;28;20025;-63
2023/04/02 17:46:30;;;;;;;0.85;0.40;;;12.50;95.40;;;;;;10401234;28;20033;-63
2023/04/02 17:51:36;;;;;;;0.73;0.40;;;12.40;95.50;;;;;;10404575;28;20056;-63
2023/04/02 17:56:43;;;;;;;0.95;0.45;;;12.40;95.70;;;;;;10405702;28;20473;-62
2023/04/02 18:01:48;;;;;;;0.63;0.40;;;12.40;95.70;;;;;;10414241;28;20493;-63
2023/04/02 18:07:18;;;;;;;0.93;0.40;;;12.40;95.80;;;;;;10394709;28;20038;-63
2023/04/02 18:12:21;;;;;;;0.90;0.55;;;12.30;95.30;;;;;;10408708;28;20025;-63
2023/04/02 18:17:44;;;;;;;0.90;0.40;;;12.30;95.70;;;;;;10414387;28;20025;-63
2023/04/02 18:23:19;;;;;;;2.20;0.60;;;12.20;95.90;;;;;;10413538;28;20048;-63
2023/04/02 18:28:29;;;;;;;0.50;0.40;;;12.20;95.40;;;;;;10413974;28;20026;-63
2023/04/02 18:33:56;;;;;;;1.15;0.50;;;12.20;96.00;;;;;;10409479;28;20037;-62
2023/04/02 18:39:27;;;;;;;1.95;0.60;;;12.10;95.60;;;;;;10403944;28;20536;-63
2023/04/02 18:44:48;;;;;;;0.85;0.50;;;12.10;95.80;;;;;;10411679;28;20060;-63
2023/04/02 18:50:27;;;;;;;0.57;0.40;;;12.00;95.80;;;;;;10409002;28;20485;-63
2023/04/02 18:55:30;;;;;;;1.05;0.40;;;12.00;95.70;;;;;;10403876;28;20051;-64
2023/04/02 19:00:35;;;;;;;0.60;0.40;;;11.90;96.20;;;;;;10407197;28;20116;-64
2023/04/02 19:05:44;;;;;;;0.77;0.40;;;11.90;96.30;;;;;;10414787;28;20025;-62
2023/04/02 19:10:48;;;;;;;1.27;0.60;;;11.90;96.20;;;;;;10409027;28;20032;-63
2023/04/02 19:16:01;;;;;;;1.15;0.45;;;11.80;96.60;;;;;;10411942;28;20059;-63
2023/04/02 19:21:15;;;;;;;1.33;0.38;;;11.80;96.40;;;;;;10412867;28;20593;-62
2023/04/02 19:26:21;;;;;;;0.77;0.38;;;11.80;96.30;;;;;;10408613;28;20025;-63
2023/04/02 19:31:46;;;;;;;0.80;0.40;;;11.70;96.40;;;;;;10415955;28;20033;-63
2023/04/02 19:37:10;;;;;;;2.15;0.60;;;11.70;96.40;;;;;;10406583;28;20051;-63
2023/04/02 19:42:50;;;;;;;0.90;0.50;;;11.60;96.40;;;;;;10408579;28;20432;-63
2023/04/02 19:47:50;;;;;;;2.30;0.50;;;11.60;95.90;;;;;;10376493;28;20112;-63
2023/04/02 19:52:51;;;;;;;1.73;0.40;;;11.50;96.50;;;;;;10407968;28;20100;-64
2023/04/02 19:57:52;;;;;;;2.03;0.47;;;11.50;96.40;;;;;;10408622;28;21138;-63
2023/04/02 20:02:52;;;;;;;1.38;0.60;;;11.40;96.60;;;;;;10403211;28;20029;-63
2023/04/02 20:07:53;;;;;;;1.40;0.60;;;11.40;96.40;;;;;;10399148;28;20157;-64
2023/04/02 20:12:53;;;;;;;3.17;0.70;;;11.40;96.40;;;;;;10407569;28;20041;-63
2023/04/02 20:17:54;;;;;;;1.38;0.52;;;11.40;96.40;;;;;;10404631;28;20726;-63
2023/04/02 20:22:54;;;;;;;1.70;0.60;;;11.30;96.40;;;;;;10409589;28;20440;-63
2023/04/02 20:27:55;;;;;;;3.58;0.50;;;11.30;96.50;;;;;;10409206;28;20040;-63
2023/04/02 20:32:59;;;;;;;0.52;0.50;;;11.20;96.50;;;;;;10406350;28;20416;-63
2023/04/02 20:38:05;;;;;;;1.48;0.57;;;11.20;96.40;;;;;;10396476;28;20032;-61
2023/04/02 20:43:06;;;;;;;1.73;0.45;;;11.20;96.40;;;;;;10397815;28;20021;-63
2023/04/02 20:48:07;;;;;;;0.50;0.40;;;11.10;96.40;;;;;;10407439;28;20112;-64
2023/04/02 20:53:07;;;;;;;2.78;0.65;;;11.10;96.50;;;;;;10405339;28;20026;-62
2023/04/02 20:58:08;;;;;;;0.68;0.50;;;11.00;96.40;;;;;;10404532;28;20036;-63
2023/04/02 21:03:10;;;;;;;2.65;0.52;;;11.00;96.40;;;;;;10407699;28;20430;-62
2023/04/02 21:08:11;;;;;;;1.75;0.63;;;11.00;96.40;;;;;;10402138;28;20025;-63
2023/04/02 21:13:11;;;;;;;0.95;0.60;;;11.00;96.40;;;;;;10398620;28;20036;-63
2023/04/02 21:18:12;;;;;;;1.00;0.50;;;10.90;96.30;;;;;;10400330;28;20021;-63
2023/04/02 21:23:13;;;;;;;1.67;0.50;;;10.90;96.30;;;;;;10402583;28;20035;-63
2023/04/02 21:28:14;;;;;;;0.63;0.40;;;10.90;96.30;;;;;;10414989;28;20466;-64
2023/04/02 21:33:14;;;;;;;1.67;0.70;;;10.80;96.20;;;;;;10401708;28;20117;-62
2023/04/02 21:38:15;;;;;;;2.53;0.70;;;10.80;96.20;;;;;;10406558;28;20485;-63
2023/04/02 21:43:15;;;;;;;1.05;0.60;;;10.70;96.20;;;;;;10399606;28;20025;-63
2023/04/02 21:48:16;;;;;;;0.73;0.50;;;10.70;96.20;;;;;;10400100;28;20022;-63
2023/04/02 21:53:17;;;;;;;1.67;0.60;;;10.70;96.20;;;;;;10396940;28;20021;-63
2023/04/02 21:58:17;;;;;;;1.35;0.70;;;10.70;96.20;;;;;;10405032;28;20070;-63
2023/04/02 22:03:18;;;;;;;2.05;0.90;;;10.60;96.20;;;;;;10405193;28;20042;-63
2023/04/02 22:08:18;;;;;;;0.90;0.50;;;10.60;96.20;;;;;;10408255;28;20072;-63
2023/04/02 22:13:19;;;;;;;1.83;0.65;;;10.60;96.20;;;;;;10404786;28;20083;-63
2023/04/02 22:18:19;;;;;;;0.70;0.50;;;10.50;96.20;;;;;;10408318;28;20018;-62
2023/04/02 22:23:20;;;;;;;0.90;0.70;;;10.50;96.20;;;;;;10406584;28;20041;-63
2023/04/02 22:28:22;;;;;;;1.38;0.70;;;10.50;96.20;;;;;;10407977;28;20020;-63
2023/04/02 22:33:24;;;;;;;1.67;0.60;;;10.50;96.10;;;;;;10407076;28;20174;-63
2023/04/02 22:38:25;;;;;;;2.08;0.75;;;10.40;96.10;;;;;;10409108;28;20021;-63
2023/04/02 22:43:26;;;;;;;0.98;0.60;;;10.40;96.10;;;;;;10411964;28;20083;-64
2023/04/02 22:48:26;;;;;;;1.20;0.65;;;10.40;96.10;;;;;;10413451;28;20022;-63
2023/04/02 22:53:27;;;;;;;1.63;0.52;;;10.30;96.00;;;;;;10418534;28;20031;-62
2023/04/02 22:58:28;;;;;;;0.88;0.47;;;10.30;96.00;;;;;;10422131;28;20226;-63
2023/04/02 23:03:29;;;;;;;1.48;0.70;;;10.30;96.00;;;;;;10415021;28;20109;-62
2023/04/02 23:08:29;;;;;;;0.90;0.60;;;10.30;96.00;;;;;;10425264;28;20032;-63
2023/04/02 23:13:30;;;;;;;1.52;0.80;;;10.20;96.00;;;;;;10408878;28;20026;-62
2023/04/02 23:18:35;;;;;;;0.70;0.50;;;10.20;96.00;;;;;;10418628;28;20040;-63
2023/04/02 23:23:36;;;;;;;1.92;0.60;;;10.10;96.00;;;;;;10416498;28;20045;-62
2023/04/02 23:28:37;;;;;;;1.08;0.60;;;10.10;96.00;;;;;;10431116;28;20075;-62
2023/04/02 23:33:38;;;;;;;0.77;0.50;;;10.10;96.00;;;;;;10422986;28;20036;-62
2023/04/02 23:38:39;;;;;;;1.73;0.70;;;10.10;95.90;;;;;;10407096;28;20055;-63
2023/04/02 23:43:39;;;;;;;0.77;0.50;;;10.10;95.90;;;;;;10418296;28;20434;-62
2023/04/02 23:48:40;;;;;;;2.05;0.82;;;10.00;95.90;;;;;;10418366;28;20029;-62
2023/04/02 23:53:42;;;;;;;3.63;0.60;;;10.00;95.90;;;;;;10407059;28;20021;-63
2023/04/02 23:58:43;;;;;;;0.85;0.65;;;10.00;95.90;;;;;;10420223;28;20044;-63
